Terminal Aerodrome Forecast
Issued by NWS

Home | Current Version | Previous Version | Text Only | Print | Product List | Glossary On
Versions: 1 2 3 4 5 6 7 8 9 10 11 12 13
000
FTUS42 TJSJ 061135
TAFJSJ
TAF
TJSJ 061135Z 0612/0712 09007KT P6SM SCT020
     FM061330 07015G22KT P6SM FEW025 SCT035
     FM062300 09011KT P6SM FEW025 SCT045=

USA.gov is the U.S. government's official web portal to all federal, state and local government web resources and services.